Des Moines, IA

7:07 PM CDT on July 23, 2016 (GMT -0500)
Des Moines International | | Change Station
Active Advisory: Heat Advisory

Elev 965 ft 41.53 °N, 93.66 °W | Updated 13 minutes ago

Scattered Clouds
Scattered Clouds
90 °F
Feels Like 102 °F
N
10
Wind Variable Wind from South

Today
High -- | Low -- °F
--% Chance of Precip.
Yesterday
High -- | Low -- °F
Precip. -- in
Pressure 29.78 in
Visibility 10.0 miles
Clouds Few 12000 ft
Scattered Clouds 15000 ft
Scattered Clouds 22000 ft
Heat Index 102 °F
Dew Point 77 °F
Humidity 65%
Rainfall 0.00 in
Snow Depth Not available.
6:01 AM 8:40 PM
Waning Gibbous, 81% visible
METAR KDSM 232354Z 19009KT 10SM FEW120 SCT150 SCT220 32/25 A2981 RMK AO2 SLP082 TCU DSNT N-NE ACC OHD-SW-N 60000 T03220250 10339 20306 58004
Pressure 29.78 in
Visibility 10.0 miles
Clouds Few 12000 ft
Scattered Clouds 15000 ft
Scattered Clouds 22000 ft
Heat Index 102 °F
Dew Point 77 °F
Humidity 65%
Rainfall 0.00 in
Snow Depth Not available.
6:01 AM 8:40 PM
Waning Gibbous, 81% visible
METAR KDSM 232354Z 19009KT 10SM FEW120 SCT150 SCT220 32/25 A2981 RMK AO2 SLP082 TCU DSNT N-NE ACC OHD-SW-N 60000 T03220250 10339 20306 58004

10-Day Weather Forecast

Almanac

Astronomy

Jul. 23, 2016 Rise Set
Actual Time
Civil Twilight
Nautical Twilight
Astronomical Twilight
Moon
Length of Visible Light
Length of Day
Tomorrow will be .
, % of the Moon is Illuminated

Today's Extremes

State Highs State Lows

Community

WunderPhotos

Upload Photos

1,926,979 photos uploaded!

WunderBlog® & News

Nearby

Air Quality

  Air Quality AQ Index Pollutant
Not available.

Snow Depth

Station Depth Elevation

Earthquake Activity

City Distance Mag. Time & Date
Minimum magnitude displayed is 2.5.

Coastal Water Temperatures

Place Temperature

Stations

Nearby Weather Stations

Station Location Temp. Windchill Dew Point Humidity Wind Precip. Elev Updated Type
                   

Watches & Warnings

Heat Advisory
Issued: 6:58 PM CDT Jul. 23, 2016 – National Weather Service

... Excessive heat warning will expire at 7 PM CDT this evening...

A cold front is forecast to sweep across the state late tonight
and bring slightly cooler temperatures and lessoning the strenuous
heat index values. Therefore... the excessive heat warning has been
allowed to expire. However... the humidity looks to remain across
the state and will be high enough to cause heat index values in
the 90s Sunday.


Podrazik